Time;durP1;ratioP1;P1;durP2;ratioP2;P2;SDS_P1;SDS_P2;PMS_P1;PMS_P2;Temp;Humidity;BMP_temperature;BMP_pressure;BME280_temperature;BME280_humidity;BME280_pressure;Samples;Min_cycle;Max_cycle;Signal;HPM_P1;HPM_P2
2022/07/10 00:01:13;;;;;;;1.75;0.82;;;;;;;28.31;34.25;102333.22;6247198;23;20035;-43
2022/07/10 00:03:44;;;;;;;1.15;0.57;;;;;;;28.33;34.06;102330.63;6219998;23;20026;-45
2022/07/10 00:06:12;;;;;;;2.80;0.70;;;;;;;28.41;33.93;102323.69;6246802;23;20008;-54
2022/07/10 00:08:42;;;;;;;0.80;0.60;;;;;;;28.32;34.02;102324.44;6247160;23;20070;-45
2022/07/10 00:11:10;;;;;;;2.78;0.90;;;;;;;28.32;34.08;102321.78;6220837;23;20335;-45
2022/07/10 00:13:39;;;;;;;0.88;0.55;;;;;;;28.02;34.46;102319.53;6247410;23;20012;-44
2022/07/10 00:16:08;;;;;;;1.20;0.73;;;;;;;28.03;34.45;102308.97;6246908;23;20004;-45
2022/07/10 00:18:36;;;;;;;0.98;0.73;;;;;;;28.04;34.42;102312.53;6220222;23;20004;-45
2022/07/10 00:21:04;;;;;;;2.15;0.90;;;;;;;28.10;34.21;102312.66;6246828;23;20030;-44
2022/07/10 00:23:33;;;;;;;2.13;0.88;;;;;;;28.14;34.27;102313.56;6246788;23;20083;-45
2022/07/10 00:26:01;;;;;;;2.58;0.63;;;;;;;27.94;34.39;102287.75;6246083;23;20083;-45
2022/07/10 00:28:30;;;;;;;1.10;0.60;;;;;;;28.13;34.32;102311.84;6247219;23;20079;-48
2022/07/10 00:30:58;;;;;;;1.08;0.47;;;;;;;28.04;34.52;102310.75;6244624;23;20000;-48
2022/07/10 00:33:27;;;;;;;2.97;0.80;;;;;;;28.09;34.25;102307.31;6246678;23;20046;-44
2022/07/10 00:35:56;;;;;;;3.88;0.85;;;;;;;28.09;34.19;102309.97;6219366;23;20008;-44
2022/07/10 00:38:25;;;;;;;0.90;0.68;;;;;;;28.01;34.11;102294.88;6246686;23;19996;-45
2022/07/10 00:40:53;;;;;;;0.90;0.77;;;;;;;28.09;34.05;102309.97;6246066;23;20406;-44
2022/07/10 00:43:22;;;;;;;1.23;0.70;;;;;;;27.80;34.65;102283.97;6219736;23;20015;-55
2022/07/10 00:45:51;;;;;;;1.30;0.80;;;;;;;28.00;34.22;102295.75;6246440;23;20008;-44
2022/07/10 00:48:19;;;;;;;1.05;0.70;;;;;;;27.87;34.45;102293.75;6246450;23;20054;-44
2022/07/10 00:50:48;;;;;;;2.35;0.90;;;;;;;27.84;34.50;102296.34;6245813;23;20038;-44
2022/07/10 00:53:17;;;;;;;0.85;0.73;;;;;;;27.84;34.36;102284.06;6246529;23;20011;-44
2022/07/10 00:55:46;;;;;;;1.10;0.70;;;;;;;27.73;34.53;102270.69;6245918;23;20004;-44
2022/07/10 00:58:15;;;;;;;3.00;0.95;;;;;;;27.84;34.31;102286.69;6246636;23;20008;-44
2022/07/10 01:00:44;;;;;;;2.50;1.20;;;;;;;27.66;34.25;102254.72;6219963;23;20008;-54
2022/07/10 01:03:12;;;;;;;1.75;0.80;;;;;;;27.71;34.50;102271.53;6244669;23;20000;-44
2022/07/10 01:05:41;;;;;;;1.60;0.88;;;;;;;27.61;34.74;102265.19;6246423;23;20008;-44
2022/07/10 01:08:10;;;;;;;3.42;0.95;;;;;;;27.63;34.74;102271.38;6219562;23;20423;-44
2022/07/10 01:10:39;;;;;;;2.00;0.90;;;;;;;27.48;34.85;102263.16;6246447;23;20012;-43
2022/07/10 01:13:08;;;;;;;1.30;0.80;;;;;;;27.64;34.54;102270.50;6245485;23;20012;-48
2022/07/10 01:15:37;;;;;;;1.30;0.70;;;;;;;27.67;34.42;102257.38;6246473;23;20067;-47
2022/07/10 01:18:06;;;;;;;0.98;0.60;;;;;;;27.60;34.71;102259.03;6219897;23;20004;-47
2022/07/10 01:20:35;;;;;;;0.95;0.73;;;;;;;27.78;34.32;102267.25;6246203;23;20008;-49
2022/07/10 01:23:04;;;;;;;1.48;0.80;;;;;;;27.64;34.48;102257.31;6246364;23;20000;-45
2022/07/10 01:25:32;;;;;;;1.02;0.75;;;;;;;27.68;34.46;102250.38;6246206;23;19997;-45
2022/07/10 01:28:01;;;;;;;2.03;0.90;;;;;;;27.66;34.41;102257.38;6245836;23;20495;-45
2022/07/10 01:30:29;;;;;;;0.98;0.85;;;;;;;27.58;34.49;102251.97;6245820;23;20067;-47
2022/07/10 01:32:58;;;;;;;1.02;0.82;;;;;;;27.63;34.44;102245.03;6245886;23;20012;-49
2022/07/10 01:35:27;;;;;;;1.13;0.80;;;;;;;27.36;34.82;102243.63;6246190;23;20008;-50
2022/07/10 01:37:55;;;;;;;1.15;0.82;;;;;;;27.43;34.88;102253.41;6245949;23;20007;-46
2022/07/10 01:40:24;;;;;;;1.50;0.93;;;;;;;27.21;34.88;102231.06;6245765;23;20047;-50
2022/07/10 01:42:52;;;;;;;1.30;0.80;;;;;;;27.31;34.96;102245.25;6246038;23;20004;-44
2022/07/10 01:45:21;;;;;;;1.20;0.90;;;;;;;27.37;35.26;102240.13;6245955;23;20447;-46
2022/07/10 01:47:49;;;;;;;2.00;0.80;;;;;;;27.33;35.22;102240.91;6219335;23;20489;-44
2022/07/10 01:50:18;;;;;;;2.17;0.80;;;;;;;27.24;35.05;102244.25;6246121;23;20004;-44
2022/07/10 01:52:47;;;;;;;1.83;0.80;;;;;;;27.24;35.26;102248.66;6245606;23;20390;-44
2022/07/10 01:55:16;;;;;;;2.45;0.90;;;;;;;27.19;35.63;102242.41;6245828;23;20007;-45
2022/07/10 01:57:44;;;;;;;2.25;0.88;;;;;;;27.03;35.68;102241.22;6219344;23;20004;-44
2022/07/10 02:00:13;;;;;;;1.60;0.85;;;;;;;27.09;35.57;102242.22;6245819;23;20004;-43
2022/07/10 02:04:40;;;;;;;1.05;0.80;;;;;;;27.11;35.33;102231.72;6219671;23;20027;-44
2022/07/10 02:05:29;;;;;;;2.70;0.77;;;;;;;27.13;35.49;102244.06;6244886;23;20031;-44
2022/07/10 02:07:57;;;;;;;1.33;0.80;;;;;;;27.11;35.52;102227.34;6245850;23;20000;-48
2022/07/10 02:10:26;;;;;;;0.95;0.60;;;;;;;27.09;35.44;102242.22;6245580;23;20332;-44
2022/07/10 02:12:54;;;;;;;1.92;1.00;;;;;;;26.95;35.92;102236.66;6245068;23;20027;-47
2022/07/10 02:15:23;;;;;;;1.85;1.00;;;;;;;26.95;35.77;102225.28;6245708;23;20050;-44
2022/07/10 02:17:52;;;;;;;0.98;0.88;;;;;;;27.01;35.63;102241.16;6245665;23;20012;-45
2022/07/10 02:20:21;;;;;;;3.63;0.98;;;;;;;27.02;36.09;102232.41;6245448;23;20008;-50
2022/07/10 02:22:49;;;;;;;1.25;1.10;;;;;;;26.90;35.78;102222.50;6194015;23;20432;-44
2022/07/10 02:25:18;;;;;;;1.02;0.80;;;;;;;26.85;36.02;102213.66;6244846;23;20027;-43
2022/07/10 02:27:46;;;;;;;1.67;1.05;;;;;;;26.81;35.99;102231.13;6245471;23;20408;-49
2022/07/10 02:30:15;;;;;;;1.52;0.75;;;;;;;26.87;35.91;102232.09;6245809;23;20004;-48
2022/07/10 02:32:43;;;;;;;1.60;0.80;;;;;;;26.82;36.16;102237.28;6245162;23;20008;-45
2022/07/10 02:35:12;;;;;;;2.20;1.10;;;;;;;26.90;36.01;102234.81;6245497;23;20031;-44
2022/07/10 02:37:40;;;;;;;2.85;1.13;;;;;;;26.80;36.09;102229.38;6245325;23;20004;-50
2022/07/10 02:40:09;;;;;;;1.75;0.93;;;;;;;26.94;35.87;102234.03;6244223;23;20004;-46
2022/07/10 02:42:38;;;;;;;2.90;0.95;;;;;;;26.84;36.15;102228.56;6245826;23;20008;-49
2022/07/10 02:45:07;;;;;;;1.20;0.85;;;;;;;26.62;36.28;102214.00;6218926;23;20004;-43
2022/07/10 02:47:36;;;;;;;2.80;0.90;;;;;;;26.69;36.38;102226.47;6245099;23;20075;-45
2022/07/10 02:50:05;;;;;;;1.67;0.90;;;;;;;26.62;36.67;102234.19;6245170;23;20035;-46
2022/07/10 02:52:33;;;;;;;1.52;0.80;;;;;;;26.51;36.55;102198.00;6194636;23;20045;-44
2022/07/10 02:55:02;;;;;;;2.58;0.93;;;;;;;26.62;36.73;102228.94;6245083;23;20019;-52
2022/07/10 02:57:30;;;;;;;1.60;0.90;;;;;;;26.58;36.96;102225.31;6245286;23;20515;-43
2022/07/10 02:59:59;;;;;;;2.20;0.80;;;;;;;26.58;36.67;102219.19;6245704;23;20440;-55
2022/07/10 03:02:27;;;;;;;3.53;0.90;;;;;;;26.62;36.88;102226.31;6220381;23;20429;-48
2022/07/10 03:04:56;;;;;;;1.50;0.93;;;;;;;26.51;37.12;102219.03;6247237;23;20062;-55
2022/07/10 03:07:24;;;;;;;0.77;0.70;;;;;;;26.61;36.71;102224.53;6247322;23;20007;-45
2022/07/10 03:09:53;;;;;;;1.33;0.80;;;;;;;26.60;36.93;102226.25;6247240;23;20004;-48
2022/07/10 03:12:21;;;;;;;1.00;0.70;;;;;;;26.53;36.95;102225.22;6247362;23;20047;-47
2022/07/10 03:14:50;;;;;;;1.38;0.80;;;;;;;26.47;36.92;102211.97;6247060;23;20011;-46
2022/07/10 03:17:18;;;;;;;1.08;0.60;;;;;;;26.46;36.96;102215.44;6247297;23;20101;-44
2022/07/10 03:19:46;;;;;;;1.55;0.88;;;;;;;26.55;36.95;102222.66;6247285;23;20445;-44
2022/07/10 03:22:15;;;;;;;1.83;0.80;;;;;;;26.59;37.00;102226.22;6247525;23;20004;-53
2022/07/10 03:24:46;;;;;;;2.13;0.90;;;;;;;26.58;36.89;102227.09;6247057;23;20008;-46
2022/07/10 03:27:14;;;;;;;1.67;0.90;;;;;;;26.42;37.50;102224.13;6246960;23;20032;-52
2022/07/10 03:29:43;;;;;;;2.03;0.82;;;;;;;26.43;37.23;102214.47;6247053;23;20378;-48
2022/07/10 03:32:11;;;;;;;4.47;0.98;;;;;;;26.29;37.61;102224.69;6247290;23;20419;-48
2022/07/10 03:34:39;;;;;;;1.17;0.85;;;;;;;26.36;37.43;102209.09;6247219;23;20012;-45
2022/07/10 03:37:08;;;;;;;2.60;0.85;;;;;;;26.45;37.38;102216.28;6246726;23;20431;-44
2022/07/10 03:39:36;;;;;;;1.00;0.73;;;;;;;26.44;37.02;102217.16;6246866;23;20000;-46
2022/07/10 03:42:05;;;;;;;1.60;0.90;;;;;;;26.38;37.22;102206.47;6246763;23;20024;-50
2022/07/10 03:44:34;;;;;;;1.63;1.02;;;;;;;26.39;37.17;102208.25;6247216;23;20004;-47
2022/07/10 03:47:03;;;;;;;1.30;0.70;;;;;;;26.39;37.11;102209.13;6246761;23;20028;-54
2022/07/10 03:49:31;;;;;;;1.80;0.98;;;;;;;26.38;37.09;102199.50;6220268;23;20020;-45
2022/07/10 03:52:01;;;;;;;2.10;1.00;;;;;;;26.46;36.91;102202.28;6247167;23;20490;-45
2022/07/10 03:54:30;;;;;;;1.25;0.85;;;;;;;26.46;36.81;102202.28;6246541;23;20035;-46
2022/07/10 03:59:47;;;;;;;0.57;0.50;;;;;;;26.36;37.13;102200.28;6236538;23;20071;-49
2022/07/10 04:02:15;;;;;;;1.33;0.77;;;;;;;26.26;37.36;102206.19;6246988;23;20004;-43
2022/07/10 04:04:44;;;;;;;1.55;0.90;;;;;;;26.31;37.29;102204.56;6247095;23;20028;-44
2022/07/10 04:07:12;;;;;;;1.75;0.88;;;;;;;26.36;37.15;102205.53;6246641;23;20032;-45
2022/07/10 04:09:41;;;;;;;1.98;0.90;;;;;;;26.26;37.20;102214.97;6246954;23;20004;-52
2022/07/10 04:12:09;;;;;;;2.30;0.93;;;;;;;26.32;37.03;102206.31;6246758;23;20427;-49
2022/07/10 04:14:38;;;;;;;1.45;0.88;;;;;;;26.28;37.45;102209.75;6246373;23;20458;-52
2022/07/10 04:17:07;;;;;;;2.15;0.73;;;;;;;26.10;37.58;102208.44;6246782;23;20005;-44
2022/07/10 04:19:35;;;;;;;1.42;0.90;;;;;;;26.11;37.39;102202.38;6246944;23;20004;-52
2022/07/10 04:22:04;;;;;;;2.05;0.70;;;;;;;26.16;37.39;102203.34;6246607;23;20007;-44
2022/07/10 04:24:32;;;;;;;3.80;1.02;;;;;;;26.08;37.66;102202.25;6246901;23;20004;-44
2022/07/10 04:27:01;;;;;;;2.08;0.75;;;;;;;26.01;37.71;102201.22;6219949;23;20391;-43
2022/07/10 04:29:30;;;;;;;1.17;0.80;;;;;;;26.00;37.69;102203.81;6246717;23;20008;-43
2022/07/10 04:31:58;;;;;;;1.17;0.75;;;;;;;26.01;37.87;102193.34;6247561;23;20449;-45
2022/07/10 04:34:27;;;;;;;1.30;0.93;;;;;;;26.04;37.38;102197.78;6246483;23;20082;-44
2022/07/10 04:36:55;;;;;;;0.82;0.80;;;;;;;26.15;37.43;102195.44;6246567;23;20004;-46
2022/07/10 04:39:24;;;;;;;2.15;0.90;;;;;;;25.87;38.04;102189.50;6246337;23;20000;-43
2022/07/10 04:41:53;;;;;;;1.33;0.80;;;;;;;25.82;38.14;102201.63;6246493;23;20067;-44
2022/07/10 04:44:21;;;;;;;1.38;0.80;;;;;;;25.91;37.90;102212.34;6246636;23;20031;-46
2022/07/10 04:46:50;;;;;;;0.93;0.70;;;;;;;25.76;37.99;102195.34;6245829;23;20000;-45
2022/07/10 04:49:18;;;;;;;1.30;0.82;;;;;;;25.98;37.95;102205.53;6246583;23;20371;-47
2022/07/10 04:51:47;;;;;;;2.63;1.00;;;;;;;25.83;37.99;102198.16;6246643;23;20066;-44
2022/07/10 04:54:15;;;;;;;2.05;1.05;;;;;;;25.85;38.32;102206.97;6246496;23;20491;-47
2022/07/10 04:56:44;;;;;;;1.45;0.85;;;;;;;25.82;38.14;102196.38;6246337;23;20472;-57
2022/07/10 04:59:12;;;;;;;2.35;0.90;;;;;;;25.84;37.86;102189.41;6246609;23;20406;-56
2022/07/10 05:01:41;;;;;;;2.75;0.95;;;;;;;25.83;37.72;102201.66;6246228;23;20157;-45
2022/07/10 05:04:09;;;;;;;2.03;0.70;;;;;;;25.85;37.81;102199.94;6244674;23;20004;-48
2022/07/10 05:06:38;;;;;;;1.92;0.90;;;;;;;25.57;38.52;102185.22;6245978;23;20000;-46
2022/07/10 05:09:06;;;;;;;1.80;0.90;;;;;;;25.77;38.00;102214.66;6246009;23;20062;-46
2022/07/10 05:11:35;;;;;;;4.70;0.85;;;;;;;25.84;38.18;102203.44;6246167;23;20004;-48
2022/07/10 05:14:04;;;;;;;1.15;0.80;;;;;;;25.76;38.24;102211.13;6246119;23;20019;-44
2022/07/10 05:16:32;;;;;;;1.60;0.93;;;;;;;25.71;38.06;102211.88;6245304;23;20015;-54
2022/07/10 05:19:01;;;;;;;1.63;0.80;;;;;;;25.84;37.72;102211.31;6245929;23;20061;-45
2022/07/10 05:21:30;;;;;;;1.98;0.80;;;;;;;25.85;37.85;102222.75;6245891;23;20424;-56
2022/07/10 05:23:58;;;;;;;1.02;0.93;;;;;;;25.82;37.98;102213.00;6245939;23;20004;-45
2022/07/10 05:26:27;;;;;;;1.48;0.85;;;;;;;25.82;37.91;102210.38;6219751;23;20000;-45
2022/07/10 05:28:56;;;;;;;1.75;0.85;;;;;;;25.92;37.84;102212.41;6244516;23;20001;-53
2022/07/10 05:31:24;;;;;;;2.22;0.55;;;;;;;25.97;37.75;102211.63;6245902;23;20486;-46
2022/07/10 05:33:53;;;;;;;3.08;0.73;;;;;;;25.87;37.68;102206.13;6246090;23;20030;-44
2022/07/10 05:36:21;;;;;;;3.33;1.00;;;;;;;25.95;37.63;102219.47;6245904;23;20012;-46
2022/07/10 05:38:49;;;;;;;1.83;0.98;;;;;;;25.94;37.73;102222.94;6245635;23;20381;-54
2022/07/10 05:41:18;;;;;;;1.70;0.80;;;;;;;26.00;37.70;102230.09;6197015;23;20019;-47
2022/07/10 05:43:46;;;;;;;0.93;0.80;;;;;;;25.90;37.85;102214.09;6184998;23;20012;-48
2022/07/10 05:46:15;;;;;;;1.25;0.80;;;;;;;25.96;38.06;102225.63;6185490;23;20002;-45
2022/07/10 05:48:44;;;;;;;2.45;0.90;;;;;;;25.97;37.98;102230.03;6185477;23;20013;-44
2022/07/10 05:51:12;;;;;;;0.98;0.75;;;;;;;26.03;37.64;102236.34;6185733;23;20005;-57
2022/07/10 05:53:41;;;;;;;1.60;0.80;;;;;;;25.84;37.90;102208.69;6185770;23;20048;-45
2022/07/10 05:56:09;;;;;;;2.75;0.90;;;;;;;26.06;37.64;102248.66;6185232;23;20384;-55
2022/07/10 05:58:38;;;;;;;1.38;0.82;;;;;;;26.17;37.68;102244.56;6185413;23;20005;-45
2022/07/10 06:01:06;;;;;;;3.53;0.80;;;;;;;26.16;37.39;102245.41;6185534;23;20425;-44
2022/07/10 06:03:35;;;;;;;2.30;1.10;;;;;;;26.17;37.59;102239.31;6185804;23;20087;-49
2022/07/10 06:06:03;;;;;;;6.45;0.80;;;;;;;26.19;37.59;102245.50;6183384;23;20001;-44
2022/07/10 06:08:32;;;;;;;1.30;0.70;;;;;;;26.20;37.58;102242.03;6185819;23;20001;-46
2022/07/10 06:10:59;;;;;;;2.15;0.90;;;;;;;26.30;37.55;102244.88;6185719;23;20001;-45
2022/07/10 06:13:28;;;;;;;1.95;0.82;;;;;;;26.43;37.45;102240.78;6184981;23;20496;-44
2022/07/10 06:15:56;;;;;;;1.77;1.17;;;;;;;26.48;37.23;102244.41;6186079;23;20005;-51
2022/07/10 06:18:25;;;;;;;3.70;1.00;;;;;;;26.52;37.12;102249.75;6185589;23;20001;-47
2022/07/10 06:20:53;;;;;;;4.85;0.80;;;;;;;26.62;36.88;102257.88;6185421;23;20009;-44
2022/07/10 06:23:22;;;;;;;1.80;0.70;;;;;;;26.66;36.75;102244.81;6185343;23;20004;-44
2022/07/10 06:25:50;;;;;;;1.73;0.90;;;;;;;26.75;36.34;102243.22;6185374;23;20043;-44
2022/07/10 06:28:19;;;;;;;0.98;0.65;;;;;;;26.80;36.27;102236.34;6185419;23;20328;-44
2022/07/10 06:30:48;;;;;;;1.95;0.68;;;;;;;26.85;36.07;102237.34;6185488;23;20009;-51
2022/07/10 06:33:16;;;;;;;3.60;0.90;;;;;;;26.90;36.32;102242.72;6185257;23;20005;-45
2022/07/10 06:35:44;;;;;;;2.90;0.80;;;;;;;26.88;36.14;102234.78;6187003;23;20005;-47
2022/07/10 06:38:12;;;;;;;2.28;0.73;;;;;;;26.98;35.87;102241.09;6187070;23;20005;-44
2022/07/10 06:40:41;;;;;;;1.30;0.60;;;;;;;26.93;35.54;102219.94;6205744;23;20102;-45
2022/07/10 06:43:08;;;;;;;2.13;0.93;;;;;;;27.05;35.59;102243.03;6221095;23;20386;-48
2022/07/10 06:45:37;;;;;;;2.67;0.60;;;;;;;27.14;35.59;102245.81;6247495;23;20432;-49
2022/07/10 06:48:05;;;;;;;1.55;0.55;;;;;;;27.13;35.44;102230.91;6247421;23;20004;-44
2022/07/10 06:50:34;;;;;;;0.90;0.52;;;;;;;27.18;34.93;102231.00;6247734;23;20000;-45
2022/07/10 06:53:03;;;;;;;2.05;0.63;;;;;;;27.23;35.28;102238.97;6247234;23;20008;-43
2022/07/10 06:55:32;;;;;;;1.00;0.60;;;;;;;27.29;34.90;102241.75;6220498;23;20479;-44
2022/07/10 06:58:01;;;;;;;0.82;0.60;;;;;;;27.39;34.86;102243.69;6247139;23;20010;-44
2022/07/10 07:00:30;;;;;;;2.25;0.77;;;;;;;27.43;34.32;102234.97;6247223;23;20008;-46
2022/07/10 07:02:58;;;;;;;4.40;0.90;;;;;;;27.39;34.51;102230.50;6247430;23;20007;-52
2022/07/10 07:05:27;;;;;;;1.60;0.80;;;;;;;27.46;34.54;102231.53;6247142;23;20000;-49
2022/07/10 07:07:56;;;;;;;4.28;0.75;;;;;;;27.55;34.24;102230.81;6247504;23;20046;-48
2022/07/10 07:10:24;;;;;;;1.80;0.52;;;;;;;27.66;33.85;102217.81;6247244;23;20366;-47
2022/07/10 07:12:53;;;;;;;2.03;0.75;;;;;;;27.66;33.51;102221.31;6247043;23;20070;-45
2022/07/10 07:15:23;;;;;;;2.63;0.93;;;;;;;27.72;32.95;102216.16;6247291;23;20004;-44
2022/07/10 07:23:28;;;;;;;0.75;0.63;;;;;;;27.79;32.73;102218.94;6236821;23;20058;-47
2022/07/10 07:25:56;;;;;;;0.95;0.70;;;;;;;27.82;32.81;102221.59;6247017;23;20062;-49
2022/07/10 07:28:24;;;;;;;1.70;0.50;;;;;;;27.94;32.64;102224.44;6247356;23;20027;-47
2022/07/10 07:30:52;;;;;;;1.10;0.60;;;;;;;27.99;32.43;102224.50;6247157;23;20331;-52
2022/07/10 07:33:20;;;;;;;1.20;0.40;;;;;;;27.97;32.13;102223.59;6247039;23;20019;-46
2022/07/10 07:35:49;;;;;;;1.52;0.80;;;;;;;27.91;31.32;102219.13;6247151;23;20023;-45
2022/07/10 07:38:18;;;;;;;1.33;0.50;;;;;;;28.00;31.40;102213.97;6247333;23;20538;-52
2022/07/10 07:40:47;;;;;;;5.07;0.68;;;;;;;28.01;31.66;102218.38;6246834;23;20530;-45
2022/07/10 07:43:16;;;;;;;2.05;0.52;;;;;;;27.97;31.17;102200.72;6247327;23;20011;-46
2022/07/10 07:45:44;;;;;;;1.90;0.60;;;;;;;28.13;30.06;102216.84;6246596;23;20004;-49
2022/07/10 07:48:13;;;;;;;4.88;0.57;;;;;;;28.17;29.97;102213.38;6247197;23;20384;-50
2022/07/10 07:50:42;;;;;;;1.05;0.60;;;;;;;28.11;30.16;102214.19;6247089;23;20008;-46
2022/07/10 07:53:11;;;;;;;2.83;0.50;;;;;;;28.12;30.38;102215.94;6246746;23;20087;-47
2022/07/10 07:55:40;;;;;;;1.85;0.52;;;;;;;28.13;29.95;102201.91;6247087;23;20000;-44
2022/07/10 07:58:08;;;;;;;0.50;0.50;;;;;;;28.13;29.65;102206.31;6246554;23;20079;-49
2022/07/10 08:00:37;;;;;;;1.15;0.50;;;;;;;28.17;29.18;102200.19;6247004;23;20452;-50
2022/07/10 08:03:06;;;;;;;0.75;0.52;;;;;;;28.14;29.77;102208.03;6220109;23;20039;-51
2022/07/10 08:05:34;;;;;;;1.30;0.70;;;;;;;28.16;29.41;102203.69;6246265;23;20011;-44
2022/07/10 08:08:08;;;;;;;0.90;0.70;;;;;;;28.22;28.89;102192.31;6247171;23;20081;-44
2022/07/10 08:10:37;;;;;;;0.90;0.50;;;;;;;28.24;29.11;102207.34;6247111;23;20004;-46
2022/07/10 08:13:05;;;;;;;1.40;0.80;;;;;;;28.19;29.24;102214.28;6247102;23;20004;-44
2022/07/10 08:15:34;;;;;;;0.63;0.52;;;;;;;28.17;28.73;102206.38;6220098;23;20008;-44
2022/07/10 08:18:04;;;;;;;0.93;0.50;;;;;;;28.10;28.42;102186.03;6246611;23;20004;-45
2022/07/10 08:20:32;;;;;;;1.80;0.70;;;;;;;28.12;28.24;102192.22;6247308;23;20011;-46
2022/07/10 08:23:01;;;;;;;4.00;0.70;;;;;;;28.27;28.37;102201.22;6246922;23;20004;-44
2022/07/10 08:25:30;;;;;;;1.70;0.50;;;;;;;28.27;28.37;102190.66;6246143;23;20005;-52
2022/07/10 08:28:02;;;;;;;1.98;0.50;;;;;;;28.38;27.99;102201.38;6246958;23;20000;-46
2022/07/10 08:30:31;;;;;;;1.17;0.50;;;;;;;28.37;27.79;102186.38;6246917;23;20424;-45
2022/07/10 08:32:59;;;;;;;0.95;0.60;;;;;;;28.33;27.67;102182.84;6246238;23;20000;-44
2022/07/10 08:35:27;;;;;;;0.50;0.30;;;;;;;28.39;27.72;102192.59;6246669;23;20012;-45
2022/07/10 08:37:55;;;;;;;3.05;0.60;;;;;;;28.45;26.96;102195.31;6219419;23;20435;-45
2022/07/10 08:40:24;;;;;;;0.63;0.43;;;;;;;28.42;27.20;102187.34;6246550;23;20439;-44
2022/07/10 08:42:54;;;;;;;1.80;0.47;;;;;;;28.35;27.04;102179.34;6246686;23;20000;-48
2022/07/10 08:45:22;;;;;;;2.10;0.40;;;;;;;28.39;27.24;102177.63;6246158;23;20000;-44
2022/07/10 08:47:51;;;;;;;3.83;0.68;;;;;;;28.43;26.97;102168.88;6219919;23;20019;-44
2022/07/10 08:50:25;;;;;;;1.77;0.57;;;;;;;28.48;27.04;102167.19;6219673;23;20031;-44
2022/07/10 08:53:00;;;;;;;1.95;0.60;;;;;;;28.55;27.09;102173.44;6219915;23;20420;-44
2022/07/10 08:55:29;;;;;;;2.40;0.55;;;;;;;28.50;27.21;102159.28;6246519;23;20008;-44
2022/07/10 08:57:58;;;;;;;0.70;0.60;;;;;;;28.53;27.19;102166.38;6219254;23;20455;-44
2022/07/10 09:00:27;;;;;;;1.10;0.50;;;;;;;28.59;27.01;102159.41;6245156;23;20063;-47
2022/07/10 09:02:56;;;;;;;4.43;0.50;;;;;;;28.50;27.26;102146.09;6246041;23;20075;-45
2022/07/10 09:05:26;;;;;;;0.50;0.30;;;;;;;28.55;26.98;102154.97;6246169;23;20435;-50
2022/07/10 09:07:56;;;;;;;1.58;0.45;;;;;;;28.68;26.76;102156.00;6246432;23;19996;-45
2022/07/10 09:10:27;;;;;;;2.20;0.80;;;;;;;28.65;26.67;102145.41;6219348;23;20005;-44
2022/07/10 09:12:57;;;;;;;3.03;0.60;;;;;;;28.69;27.04;102148.94;6244688;23;20076;-44
2022/07/10 09:15:29;;;;;;;0.98;0.60;;;;;;;28.75;26.64;102155.22;6245866;23;20004;-44
2022/07/10 09:18:00;;;;;;;1.02;0.40;;;;;;;28.69;26.61;102143.66;6246311;23;20022;-44
2022/07/10 09:20:34;;;;;;;1.42;0.50;;;;;;;28.67;26.79;102148.94;6245921;23;20004;-44
2022/07/10 09:23:18;;;;;;;1.25;0.80;;;;;;;28.66;26.81;102149.81;6246085;23;20008;-44
2022/07/10 09:25:48;;;;;;;0.73;0.50;;;;;;;28.70;26.88;102142.81;6246524;23;20004;-49
2022/07/10 09:28:19;;;;;;;2.25;0.60;;;;;;;28.82;26.77;102135.03;6246744;23;20079;-44
2022/07/10 09:30:48;;;;;;;0.70;0.43;;;;;;;28.85;26.90;102136.84;6246405;23;20419;-44
2022/07/10 09:33:30;;;;;;;0.85;0.50;;;;;;;28.84;26.96;102148.28;6245991;23;20000;-44
2022/07/10 09:36:13;;;;;;;2.42;0.70;;;;;;;28.86;26.72;102139.50;6244370;23;20050;-45
2022/07/10 09:38:44;;;;;;;1.25;0.60;;;;;;;28.97;26.74;102144.91;6220060;23;20501;-55
2022/07/10 09:41:24;;;;;;;1.50;0.40;;;;;;;28.91;26.78;102140.44;6245978;23;20401;-44
2022/07/10 09:44:07;;;;;;;2.60;0.50;;;;;;;28.88;26.74;102128.94;6246086;23;20077;-51
2022/07/10 09:46:38;;;;;;;0.60;0.40;;;;;;;29.01;27.01;102133.50;6244159;23;20004;-52
2022/07/10 09:49:18;;;;;;;0.80;0.50;;;;;;;29.03;27.03;102141.44;6219225;23;20344;-45
2022/07/10 09:51:47;;;;;;;0.98;0.52;;;;;;;29.05;27.31;102142.34;6245695;23;20420;-44
2022/07/10 09:54:16;;;;;;;1.90;0.50;;;;;;;29.09;27.06;102136.22;6245978;23;20011;-44
2022/07/10 09:56:46;;;;;;;0.85;0.60;;;;;;;29.05;26.93;102130.00;6244830;23;20007;-44
2022/07/10 09:59:17;;;;;;;1.15;0.50;;;;;;;29.05;27.15;102134.41;6219126;23;20008;-43
2022/07/10 10:01:51;;;;;;;2.45;0.52;;;;;;;29.01;26.93;102146.72;6218949;23;20054;-44
2022/07/10 10:04:21;;;;;;;1.75;0.50;;;;;;;29.05;26.88;102139.69;6245805;23;20086;-44
2022/07/10 10:06:57;;;;;;;0.88;0.50;;;;;;;29.08;27.40;102131.81;6218914;23;20442;-45
2022/07/10 10:09:30;;;;;;;1.75;0.45;;;;;;;29.16;26.96;102134.53;6246092;23;20054;-50
2022/07/10 10:12:02;;;;;;;2.63;0.70;;;;;;;29.11;26.97;102139.78;6244631;23;20075;-44
2022/07/10 10:14:31;;;;;;;2.38;0.57;;;;;;;28.95;27.26;102104.38;6218528;23;20054;-46
2022/07/10 10:17:01;;;;;;;0.88;0.65;;;;;;;29.14;27.00;102130.97;6243913;23;20308;-44
2022/07/10 10:22:20;;;;;;;1.13;0.40;;;;;;;29.18;27.09;102117.78;6223554;23;20004;-45
2022/07/10 10:24:49;;;;;;;2.38;0.47;;;;;;;29.22;27.18;102130.16;6245496;23;20016;-45
2022/07/10 10:27:17;;;;;;;3.20;0.90;;;;;;;29.22;26.93;102122.25;6245690;23;20031;-44
2022/07/10 10:29:47;;;;;;;1.73;0.50;;;;;;;29.19;27.40;102126.63;6244160;23;20000;-44
2022/07/10 10:32:16;;;;;;;1.00;0.50;;;;;;;29.25;27.52;102130.22;6246900;23;20083;-45
2022/07/10 10:34:48;;;;;;;2.50;0.70;;;;;;;29.26;27.58;102128.44;6245494;23;20501;-52
2022/07/10 10:37:37;;;;;;;2.28;0.50;;;;;;;29.36;27.53;102122.41;6245482;23;20079;-51
2022/07/10 10:40:07;;;;;;;2.15;0.47;;;;;;;29.39;27.89;102126.81;6218754;23;20000;-51
2022/07/10 10:42:43;;;;;;;0.98;0.50;;;;;;;29.34;27.48;102117.94;6245780;23;20091;-44
2022/07/10 10:45:31;;;;;;;1.63;0.70;;;;;;;29.34;27.30;102117.94;6245557;23;20004;-44
2022/07/10 10:48:02;;;;;;;2.92;0.60;;;;;;;29.37;27.40;102110.06;6245935;23;20004;-44
2022/07/10 10:50:51;;;;;;;1.02;0.63;;;;;;;29.39;27.40;102103.91;6245536;23;20008;-44
2022/07/10 10:53:22;;;;;;;0.57;0.43;;;;;;;29.48;26.88;102102.22;6238575;23;20008;-44
2022/07/10 10:56:10;;;;;;;0.95;0.55;;;;;;;29.47;26.88;102108.38;6245563;23;20016;-44
2022/07/10 10:58:42;;;;;;;2.15;0.50;;;;;;;29.38;27.07;102103.91;6245901;23;20004;-48
2022/07/10 11:01:30;;;;;;;2.28;0.50;;;;;;;29.48;27.07;102102.22;6245807;23;20004;-44
2022/07/10 11:04:19;;;;;;;0.80;0.40;;;;;;;29.50;27.26;102097.84;6245386;23;20335;-44
2022/07/10 11:06:50;;;;;;;0.90;0.43;;;;;;;29.52;26.92;102102.25;6245199;23;20039;-44
2022/07/10 11:09:24;;;;;;;1.17;0.40;;;;;;;29.51;26.86;102097.84;6245287;23;20005;-46
2022/07/10 11:12:07;;;;;;;0.95;0.45;;;;;;;29.43;27.21;102101.28;6245812;23;20059;-44
2022/07/10 11:14:36;;;;;;;0.73;0.35;;;;;;;29.54;27.13;102096.97;6244143;23;20340;-43
2022/07/10 11:17:06;;;;;;;0.88;0.50;;;;;;;29.48;27.07;102089.00;6245419;23;20004;-46
2022/07/10 11:19:36;;;;;;;2.65;0.40;;;;;;;29.63;27.27;102094.41;6218488;23;20000;-44
2022/07/10 11:22:12;;;;;;;1.90;0.70;;;;;;;29.58;26.30;102095.25;6247243;23;20058;-44
2022/07/10 11:24:41;;;;;;;1.70;0.90;;;;;;;29.64;26.71;102097.91;6246153;23;20000;-54
2022/07/10 11:27:21;;;;;;;0.70;0.60;;;;;;;29.62;26.77;102089.09;6220933;23;20005;-44
2022/07/10 11:29:58;;;;;;;1.13;0.60;;;;;;;29.65;27.08;102095.28;6247289;23;20320;-46
2022/07/10 11:32:27;;;;;;;0.52;0.40;;;;;;;29.67;27.13;102097.94;6247876;23;20001;-45
2022/07/10 11:34:56;;;;;;;0.70;0.40;;;;;;;29.64;26.84;102089.97;6246037;23;20012;-44
2022/07/10 11:37:28;;;;;;;0.75;0.57;;;;;;;29.73;26.92;102090.06;6246866;23;20004;-57
2022/07/10 11:40:10;;;;;;;1.52;0.40;;;;;;;29.70;26.83;102082.09;6247920;23;20368;-44
2022/07/10 11:42:59;;;;;;;0.88;0.73;;;;;;;29.73;26.60;102081.22;6246626;23;20008;-51
2022/07/10 11:45:30;;;;;;;3.13;0.43;;;;;;;29.77;26.39;102073.34;6247405;23;20004;-49
2022/07/10 11:47:59;;;;;;;0.95;0.40;;;;;;;29.80;26.35;102077.75;6220368;23;20495;-45